createdAt,value
2018-09-15T00:00:50.067Z,14.16
2018-09-15T00:02:50.079Z,14.16
2018-09-15T00:04:50.487Z,14.22
2018-09-15T00:06:49.805Z,14.27
2018-09-15T00:08:49.928Z,14.29
2018-09-15T00:10:49.967Z,14.29
2018-09-15T00:12:50.031Z,14.33
2018-09-15T00:14:50.117Z,14.35
2018-09-15T00:16:50.416Z,14.38
2018-09-15T00:18:50.566Z,14.41
2018-09-15T00:20:50.666Z,14.41
2018-09-15T00:22:49.874Z,14.43
2018-09-15T00:24:50.004Z,14.49
2018-09-15T00:26:50.226Z,14.52
2018-09-15T00:28:50.302Z,14.53
2018-09-15T00:30:50.234Z,14.53
2018-09-15T00:32:50.220Z,14.53
2018-09-15T00:34:50.589Z,14.53
2018-09-15T00:36:49.782Z,14.53
2018-09-15T00:38:50.121Z,14.53
2018-09-15T00:40:50.286Z,14.54
2018-09-15T00:42:50.342Z,14.54
2018-09-15T00:44:50.374Z,14.54
2018-09-15T00:46:50.536Z,14.52
2018-09-15T00:48:50.615Z,14.51
2018-09-15T00:50:50.602Z,14.51
2018-09-15T00:52:49.790Z,14.52
2018-09-15T00:54:49.836Z,14.52
2018-09-15T00:56:50.062Z,14.54
2018-09-15T00:58:50.112Z,14.55
2018-09-15T01:00:50.077Z,14.56
2018-09-15T01:02:50.081Z,14.58
2018-09-15T01:04:50.471Z,14.61
2018-09-15T01:06:49.757Z,14.63
2018-09-15T01:08:49.803Z,14.66
2018-09-15T01:10:49.933Z,14.69
2018-09-15T01:12:49.987Z,14.69
2018-09-15T01:14:50.086Z,14.70
2018-09-15T01:16:50.343Z,14.73
2018-09-15T01:18:50.333Z,14.75
2018-09-15T01:20:50.387Z,14.75
2018-09-15T01:22:50.351Z,14.75
2018-09-15T01:24:50.449Z,14.77
2018-09-15T01:26:49.764Z,14.77
2018-09-15T01:28:49.767Z,14.77
2018-09-15T01:30:49.828Z,14.75
2018-09-15T01:32:49.942Z,14.75
2018-09-15T01:34:50.228Z,14.74
2018-09-15T01:36:50.345Z,14.73
2018-09-15T01:38:50.356Z,14.72
2018-09-15T01:40:50.459Z,14.73
2018-09-15T01:42:50.532Z,14.73
2018-09-15T01:44:50.603Z,14.71
2018-09-15T01:46:49.880Z,14.70
2018-09-15T01:48:49.943Z,14.68
2018-09-15T01:50:49.971Z,14.66
2018-09-15T01:52:49.916Z,14.68
2018-09-15T01:54:49.916Z,14.67
2018-09-15T01:56:50.050Z,14.67
2018-09-15T01:58:50.003Z,14.71
2018-09-15T02:00:50.060Z,14.72
2018-09-15T02:02:50.133Z,14.72
2018-09-15T02:04:50.471Z,14.69
2018-09-15T02:06:49.873Z,14.66
2018-09-15T02:08:49.912Z,14.65
2018-09-15T02:10:49.894Z,14.65
2018-09-15T02:12:49.931Z,14.64
2018-09-15T02:14:50.010Z,14.63
2018-09-15T02:16:50.196Z,14.62
2018-09-15T02:18:50.224Z,14.59
2018-09-15T02:20:50.280Z,14.58
2018-09-15T02:22:50.483Z,14.58
2018-09-15T02:24:50.566Z,14.58
2018-09-15T02:26:49.851Z,14.61
2018-09-15T02:28:50.063Z,14.61
2018-09-15T02:30:50.172Z,14.61
2018-09-15T02:32:50.221Z,14.61
2018-09-15T02:34:50.625Z,14.60
2018-09-15T02:36:49.868Z,14.59
2018-09-15T02:38:50.031Z,14.58
2018-09-15T02:40:50.125Z,14.56
2018-09-15T02:42:50.141Z,14.56
2018-09-15T02:44:50.190Z,14.56
2018-09-15T02:46:50.481Z,14.55
2018-09-15T02:48:50.426Z,14.53
2018-09-15T02:50:50.496Z,14.52
2018-09-15T02:52:50.440Z,14.49
2018-09-15T02:54:50.779Z,14.47
2018-09-15T02:56:50.172Z,14.46
2018-09-15T02:58:50.179Z,14.42
2018-09-15T03:00:50.230Z,14.41
2018-09-15T03:02:50.228Z,14.38
2018-09-15T03:04:50.634Z,14.37
2018-09-15T03:06:49.913Z,14.35
2018-09-15T03:08:49.905Z,14.32
2018-09-15T03:10:50.318Z,14.26
2018-09-15T03:12:50.558Z,14.19
2018-09-15T03:14:50.523Z,14.17
2018-09-15T03:16:49.783Z,14.17
2018-09-15T03:18:49.858Z,14.22
2018-09-15T03:20:49.942Z,14.26
2018-09-15T03:22:49.961Z,14.33
2018-09-15T03:24:50.047Z,14.36
2018-09-15T03:26:50.255Z,14.39
2018-09-15T03:28:50.293Z,14.40
2018-09-15T03:30:50.292Z,14.44
2018-09-15T03:32:50.322Z,14.44
2018-09-15T03:34:49.706Z,14.43
2018-09-15T03:36:50.115Z,14.42
2018-09-15T03:38:50.122Z,14.38
2018-09-15T03:40:50.210Z,14.32
2018-09-15T03:42:50.329Z,14.29
2018-09-15T03:44:50.405Z,14.25
2018-09-15T03:46:50.653Z,14.26
2018-09-15T03:48:50.668Z,14.27
2018-09-15T03:50:49.792Z,14.29
2018-09-15T03:52:49.827Z,14.30
2018-09-15T03:54:49.958Z,14.30
2018-09-15T03:56:50.193Z,14.29
2018-09-15T03:58:50.191Z,14.28
2018-09-15T04:00:50.285Z,14.25
2018-09-15T04:02:50.257Z,14.20
2018-09-15T04:04:50.462Z,14.18
2018-09-15T04:06:49.777Z,14.13
2018-09-15T04:08:49.932Z,14.13
2018-09-15T04:10:49.944Z,14.05
2018-09-15T04:12:49.926Z,14.00
2018-09-15T04:14:50.010Z,13.94
2018-09-15T04:16:50.370Z,13.88
2018-09-15T04:18:50.430Z,13.85
2018-09-15T04:20:50.530Z,13.81
2018-09-15T04:22:50.576Z,13.78
2018-09-15T04:24:50.586Z,13.77
2018-09-15T04:26:50.388Z,13.76
2018-09-15T04:28:50.444Z,13.71
2018-09-15T04:30:50.497Z,13.62
2018-09-15T04:32:50.605Z,13.55
2018-09-15T04:34:49.961Z,13.47
2018-09-15T04:36:50.160Z,13.43
2018-09-15T04:38:50.233Z,13.45
2018-09-15T04:40:50.317Z,13.46
2018-09-15T04:42:50.350Z,13.48
2018-09-15T04:44:50.328Z,13.50
2018-09-15T04:46:50.594Z,13.51
2018-09-15T04:48:50.614Z,13.53
2018-09-15T04:50:50.649Z,13.57
2018-09-15T04:52:50.256Z,13.66
2018-09-15T04:54:50.405Z,13.66
2018-09-15T04:56:49.724Z,13.75
2018-09-15T04:58:50.262Z,13.81
2018-09-15T05:00:50.652Z,13.91
2018-09-15T05:02:50.608Z,13.98
2018-09-15T05:04:50.048Z,14.03
2018-09-15T05:06:50.271Z,14.07
2018-09-15T05:08:50.323Z,14.07
2018-09-15T05:10:50.306Z,14.21
2018-09-15T05:12:50.699Z,14.24
2018-09-15T05:14:49.875Z,14.31
2018-09-15T05:16:50.201Z,14.34
2018-09-15T05:18:50.169Z,14.41
2018-09-15T05:20:50.168Z,14.43
2018-09-15T05:22:50.180Z,14.43
2018-09-15T05:24:50.133Z,14.42
2018-09-15T05:26:50.354Z,14.42
2018-09-15T05:28:50.386Z,14.42
2018-09-15T05:30:50.381Z,14.46
2018-09-15T05:32:50.443Z,14.50
2018-09-15T05:34:49.868Z,14.55
2018-09-15T05:36:50.673Z,14.57
2018-09-15T05:38:50.641Z,14.61
2018-09-15T05:40:50.726Z,14.62
2018-09-15T05:42:49.774Z,14.65
2018-09-15T05:44:49.796Z,14.72
2018-09-15T05:46:49.997Z,14.78
2018-09-15T05:48:50.026Z,14.79
2018-09-15T05:50:50.094Z,14.78
2018-09-15T05:52:50.167Z,14.79
2018-09-15T05:54:50.210Z,14.79
2018-09-15T05:56:50.290Z,14.76
2018-09-15T05:58:50.266Z,14.72
2018-09-15T06:00:50.285Z,14.70
2018-09-15T06:02:50.335Z,14.71
2018-09-15T06:04:49.777Z,14.72
2018-09-15T06:06:50.409Z,14.75
2018-09-15T06:08:50.600Z,14.77
2018-09-15T06:10:50.585Z,14.84
2018-09-15T06:12:49.781Z,14.93
2018-09-15T06:14:49.847Z,14.93
2018-09-15T06:16:50.128Z,15.08
2018-09-15T06:18:50.190Z,15.12
2018-09-15T06:20:50.305Z,15.20
2018-09-15T06:22:50.315Z,15.25
2018-09-15T06:24:50.396Z,15.36
2018-09-15T06:26:50.663Z,15.4
2018-09-15T06:28:50.614Z,15.4
2018-09-15T06:30:50.846Z,15.5
2018-09-15T06:32:49.942Z,15.6
2018-09-15T06:34:50.299Z,15.6
2018-09-15T06:36:50.510Z,15.6
2018-09-15T06:38:50.622Z,15.6
2018-09-15T06:40:50.580Z,15.7
2018-09-15T06:42:49.803Z,15.7
2018-09-15T06:44:49.792Z,15.7
2018-09-15T06:46:49.920Z,15.7
2018-09-15T06:48:49.944Z,15.8
2018-09-15T06:50:49.880Z,15.9
2018-09-15T06:52:49.984Z,15.9
2018-09-15T06:54:49.949Z,15.9
2018-09-15T06:56:50.150Z,15.9
2018-09-15T06:58:50.239Z,16.0
2018-09-15T07:00:50.452Z,16.0
2018-09-15T07:02:50.677Z,16.1
2018-09-15T07:04:49.974Z,16.1
2018-09-15T07:06:50.433Z,16.1
2018-09-15T07:08:50.534Z,16.2
2018-09-15T07:10:50.541Z,16.2
2018-09-15T07:12:50.769Z,16.2
2018-09-15T07:14:49.954Z,16.2
2018-09-15T07:16:50.242Z,16.3
2018-09-15T07:18:50.245Z,16.3
2018-09-15T07:20:50.328Z,16.4
2018-09-15T07:22:50.468Z,16.4
2018-09-15T07:24:50.415Z,16.4
2018-09-15T07:26:49.812Z,16.5
2018-09-15T07:28:49.877Z,16.5
2018-09-15T07:30:49.928Z,16.5
2018-09-15T07:32:50.091Z,16.6
2018-09-15T07:34:50.652Z,16.6
2018-09-15T07:36:50.114Z,16.7
2018-09-15T07:38:50.041Z,16.6
2018-09-15T07:40:50.079Z,16.7
2018-09-15T07:42:50.136Z,16.7
2018-09-15T07:44:50.676Z,16.8
2018-09-15T07:46:50.204Z,16.8
2018-09-15T07:48:50.214Z,16.9
2018-09-15T07:50:50.257Z,16.9
2018-09-15T07:52:50.350Z,16.9
2018-09-15T07:54:50.401Z,16.9
2018-09-15T07:56:50.634Z,17.0
2018-09-15T07:58:49.741Z,17.1
2018-09-15T08:00:49.834Z,17.1
2018-09-15T08:02:49.878Z,17.2
2018-09-15T08:04:50.483Z,17.2
2018-09-15T08:06:50.697Z,17.3
2018-09-15T08:08:50.620Z,17.3
2018-09-15T08:10:50.826Z,17.3
2018-09-15T08:12:49.924Z,17.4
2018-09-15T08:14:50.024Z,17.4
2018-09-15T08:16:50.181Z,17.5
2018-09-15T08:18:50.231Z,17.6
2018-09-15T08:20:50.763Z,17.6
2018-09-15T08:22:49.959Z,17.6
2018-09-15T08:24:49.996Z,17.7
2018-09-15T08:26:50.121Z,17.7
2018-09-15T08:28:50.169Z,17.8
2018-09-15T08:30:50.316Z,17.8
2018-09-15T08:32:50.377Z,17.9
2018-09-15T08:34:49.827Z,18.0
2018-09-15T08:36:50.056Z,18.0
2018-09-15T08:38:50.095Z,18.0
2018-09-15T08:40:50.144Z,18.0
2018-09-15T08:42:50.156Z,18.1
2018-09-15T08:44:50.154Z,18.1
2018-09-15T08:46:50.357Z,18.2
2018-09-15T08:48:50.383Z,18.2
2018-09-15T08:50:50.514Z,18.2
2018-09-15T08:52:50.438Z,18.3
2018-09-15T08:54:50.506Z,18.3
2018-09-15T08:56:50.670Z,18.4
2018-09-15T08:58:49.807Z,18.4
2018-09-15T09:00:49.829Z,18.4
2018-09-15T09:02:49.863Z,18.4
2018-09-15T09:04:50.380Z,18.5
2018-09-15T09:06:50.638Z,18.5
2018-09-15T09:08:50.561Z,18.5
2018-09-15T09:10:50.638Z,18.6
2018-09-15T09:12:49.801Z,18.6
2018-09-15T09:14:49.756Z,18.6
2018-09-15T09:16:49.966Z,18.6
2018-09-15T09:18:50.015Z,18.7
2018-09-15T09:20:50.011Z,18.8
2018-09-15T09:22:50.027Z,18.8
2018-09-15T09:24:50.054Z,18.8
2018-09-15T09:26:51.033Z,18.8
2018-09-15T09:28:50.127Z,18.8
2018-09-15T09:30:50.162Z,18.9
2018-09-15T09:32:50.220Z,19.0
2018-09-15T09:34:50.577Z,19.0
2018-09-15T09:36:50.053Z,19.0
2018-09-15T09:38:50.128Z,19.0
2018-09-15T09:40:50.147Z,19.1
2018-09-15T09:42:50.163Z,19.1
2018-09-15T09:44:50.191Z,19.2
2018-09-15T09:46:50.386Z,19.2
2018-09-15T09:48:50.392Z,19.2
2018-09-15T09:50:50.399Z,19.4
2018-09-15T09:52:50.376Z,19.5
2018-09-15T09:54:50.421Z,19.5
2018-09-15T09:56:50.509Z,19.5
2018-09-15T09:58:50.691Z,19.5
2018-09-15T10:00:49.730Z,19.6
2018-09-15T10:02:49.738Z,19.7
2018-09-15T10:04:50.167Z,19.7
2018-09-15T10:06:50.311Z,19.9
2018-09-15T10:08:50.384Z,20.0
2018-09-15T10:10:50.361Z,20.2
2018-09-15T10:12:50.653Z,20.4
2018-09-15T10:14:50.675Z,20.4
2018-09-15T10:16:50.005Z,20.4
2018-09-15T10:18:50.034Z,20.5
2018-09-15T10:20:50.044Z,20.6
2018-09-15T10:22:49.952Z,20.6
2018-09-15T10:24:49.991Z,20.6
2018-09-15T10:26:50.194Z,20.7
2018-09-15T10:28:50.144Z,20.8
2018-09-15T10:30:50.208Z,20.8
2018-09-15T10:32:50.251Z,20.8
2018-09-15T10:34:50.657Z,20.8
2018-09-15T10:36:49.917Z,20.8
2018-09-15T10:38:49.918Z,20.8
2018-09-15T10:40:49.960Z,20.9
2018-09-15T10:42:49.967Z,20.9
2018-09-15T10:44:49.987Z,21.0
2018-09-15T10:46:50.149Z,21.0
2018-09-15T10:48:50.147Z,21.2
2018-09-15T10:50:50.168Z,21.2
2018-09-15T10:52:50.225Z,21.3
2018-09-15T10:54:50.452Z,21.3
2018-09-15T10:56:50.674Z,21.4
2018-09-15T10:58:49.777Z,21.5
2018-09-15T11:00:50.452Z,21.6
2018-09-15T11:02:49.829Z,21.6
2018-09-15T11:04:50.245Z,21.6
2018-09-15T11:06:50.582Z,21.6
2018-09-15T11:08:49.709Z,21.5
2018-09-15T11:10:49.766Z,21.5
2018-09-15T11:12:49.873Z,21.4
2018-09-15T11:14:49.937Z,21.2
2018-09-15T11:16:50.186Z,21.1
2018-09-15T11:18:50.183Z,21.0
2018-09-15T11:20:50.339Z,21.0
2018-09-15T11:22:50.755Z,20.8
2018-09-15T11:24:49.990Z,20.8
2018-09-15T11:26:50.239Z,20.7
2018-09-15T11:28:50.365Z,20.7
2018-09-15T11:30:50.543Z,20.6
2018-09-15T11:32:49.718Z,20.6
2018-09-15T11:34:50.213Z,20.7
2018-09-15T11:36:50.459Z,20.6
2018-09-15T11:38:50.528Z,20.6
2018-09-15T11:40:50.450Z,20.7
2018-09-15T11:42:50.518Z,20.8
2018-09-15T11:44:50.495Z,21.0
2018-09-15T11:46:49.716Z,21.1
2018-09-15T11:48:49.733Z,21.1
2018-09-15T11:50:49.812Z,21.2
2018-09-15T11:52:49.963Z,21.3
2018-09-15T11:54:49.930Z,21.4
2018-09-15T11:56:50.078Z,21.5
2018-09-15T11:58:50.097Z,21.5
2018-09-15T12:00:50.120Z,21.7
2018-09-15T12:02:50.221Z,21.9
2018-09-15T12:04:50.459Z,22.0
2018-09-15T12:06:50.566Z,22.1
2018-09-15T12:08:49.759Z,22.2
2018-09-15T12:10:49.792Z,22.2
2018-09-15T12:12:49.913Z,22.4
2018-09-15T12:14:50.021Z,22.5
2018-09-15T12:16:50.213Z,22.5
2018-09-15T12:18:50.275Z,22.5
2018-09-15T12:20:50.277Z,22.5
2018-09-15T12:22:50.313Z,22.6
2018-09-15T12:24:50.351Z,22.6
2018-09-15T12:26:50.512Z,22.5
2018-09-15T12:28:50.517Z,22.5
2018-09-15T12:30:50.679Z,22.3
2018-09-15T12:32:49.809Z,22.2
2018-09-15T12:34:50.325Z,21.95
2018-09-15T12:36:50.491Z,21.84
2018-09-15T12:38:50.594Z,22.0
2018-09-15T12:40:50.580Z,22.0
2018-09-15T12:42:49.742Z,22.0
2018-09-15T12:44:49.867Z,22.1
2018-09-15T12:46:49.937Z,22.1
2018-09-15T12:48:49.924Z,22.3
2018-09-15T12:50:50.130Z,22.4
2018-09-15T12:52:50.162Z,22.4
2018-09-15T12:54:50.155Z,22.4
2018-09-15T12:56:50.318Z,22.4
2018-09-15T12:58:50.405Z,22.4
2018-09-15T13:00:50.451Z,22.3
2018-09-15T13:02:50.477Z,22.2
2018-09-15T13:04:49.845Z,22.1
2018-09-15T13:06:50.049Z,21.88
2018-09-15T13:08:50.129Z,21.66
2018-09-15T13:10:50.153Z,21.64
2018-09-15T13:12:50.200Z,21.8
2018-09-15T13:14:50.310Z,21.8
2018-09-15T13:16:50.478Z,21.8
2018-09-15T13:18:50.443Z,22.0
2018-09-15T13:20:50.408Z,22.0
2018-09-15T13:22:50.552Z,21.86
2018-09-15T13:24:50.506Z,21.8
2018-09-15T13:26:49.733Z,21.8
2018-09-15T13:28:49.884Z,21.8
2018-09-15T13:30:49.916Z,21.7
2018-09-15T13:32:49.886Z,21.8
2018-09-15T13:34:50.398Z,21.8
2018-09-15T13:36:50.691Z,21.8
2018-09-15T13:38:50.676Z,21.9
2018-09-15T13:40:50.707Z,22.0
2018-09-15T13:42:49.815Z,22.0
2018-09-15T13:44:49.870Z,22.0
2018-09-15T13:46:50.360Z,22.1
2018-09-15T13:48:50.534Z,22.1
2018-09-15T13:50:50.570Z,22.0
2018-09-15T13:52:50.542Z,22.0
2018-09-15T13:54:50.548Z,21.8
2018-09-15T13:56:49.839Z,21.7
2018-09-15T13:58:50.270Z,21.6
2018-09-15T14:00:50.455Z,21.6
2018-09-15T14:02:50.397Z,21.6
2018-09-15T14:04:50.393Z,21.5
2018-09-15T14:06:49.873Z,21.5
2018-09-15T14:08:50.296Z,21.5
2018-09-15T14:10:50.709Z,21.6
2018-09-15T14:12:49.837Z,21.6
2018-09-15T14:14:49.949Z,21.6
2018-09-15T14:16:50.209Z,21.6
2018-09-15T14:18:50.228Z,21.6
2018-09-15T14:20:50.287Z,21.5
2018-09-15T14:22:50.345Z,21.5
2018-09-15T14:24:50.393Z,21.4
2018-09-15T14:26:50.506Z,21.4
2018-09-15T14:28:50.564Z,21.4
2018-09-15T14:30:50.565Z,21.6
2018-09-15T14:32:50.707Z,21.7
2018-09-15T14:34:50.547Z,21.8
2018-09-15T14:36:49.744Z,21.8
2018-09-15T14:38:50.262Z,21.8
2018-09-15T14:40:50.368Z,21.8
2018-09-15T14:42:50.346Z,21.8
2018-09-15T14:44:50.300Z,21.8
2018-09-15T14:46:50.443Z,21.8
2018-09-15T14:48:50.463Z,21.8
2018-09-15T14:50:50.443Z,21.8
2018-09-15T14:52:50.415Z,21.9
2018-09-15T14:54:50.374Z,21.9
2018-09-15T14:56:50.520Z,21.9
2018-09-15T14:58:50.546Z,21.9
2018-09-15T15:00:51.029Z,21.9
2018-09-15T15:02:50.320Z,21.9
2018-09-15T15:04:49.777Z,21.8
2018-09-15T15:06:50.183Z,21.9
2018-09-15T15:08:50.306Z,21.9
2018-09-15T15:10:50.269Z,21.9
2018-09-15T15:12:50.291Z,21.9
2018-09-15T15:14:50.304Z,21.9
2018-09-15T15:16:50.559Z,21.9
2018-09-15T15:18:50.549Z,21.9
2018-09-15T15:20:50.661Z,21.9
2018-09-15T15:22:49.824Z,21.9
2018-09-15T15:24:49.954Z,21.9
2018-09-15T15:26:50.225Z,21.9
2018-09-15T15:28:50.232Z,21.8
2018-09-15T15:30:50.322Z,21.8
2018-09-15T15:32:50.462Z,21.8
2018-09-15T15:34:49.841Z,21.8
2018-09-15T15:36:50.151Z,21.7
2018-09-15T15:38:50.242Z,21.7
2018-09-15T15:40:50.438Z,21.6
2018-09-15T15:42:50.554Z,21.6
2018-09-15T15:44:50.601Z,21.5
2018-09-15T15:46:49.836Z,21.5
2018-09-15T15:48:49.789Z,21.5
2018-09-15T15:50:50.021Z,21.4
2018-09-15T15:52:50.077Z,21.4
2018-09-15T15:54:50.037Z,21.4
2018-09-15T15:56:50.269Z,21.4
2018-09-15T15:58:51.728Z,21.3
2018-09-15T16:00:50.144Z,21.2
2018-09-15T16:02:50.160Z,21.1
2018-09-15T16:04:50.424Z,21.04
2018-09-15T16:06:49.702Z,20.98
2018-09-15T16:08:49.769Z,20.96
2018-09-15T16:10:49.851Z,20.90
2018-09-15T16:12:49.913Z,20.79
2018-09-15T16:14:49.932Z,20.64
2018-09-15T16:16:50.157Z,20.50
2018-09-15T16:18:50.250Z,20.46
2018-09-15T16:20:50.272Z,20.40
2018-09-15T16:22:50.325Z,20.35
2018-09-15T16:24:50.353Z,20.29
2018-09-15T16:26:50.665Z,20.29
2018-09-15T16:28:50.574Z,20.15
2018-09-15T16:30:50.683Z,20.02
2018-09-15T16:32:49.691Z,19.99
2018-09-15T16:34:50.200Z,19.92
2018-09-15T16:36:50.272Z,19.90
2018-09-15T16:38:50.278Z,19.85
2018-09-15T16:40:50.542Z,19.75
2018-09-15T16:42:49.717Z,19.73
2018-09-15T16:44:49.799Z,19.67
2018-09-15T16:46:49.975Z,19.67
2018-09-15T16:48:49.961Z,19.56
2018-09-15T16:50:50.086Z,19.53
2018-09-15T16:52:50.046Z,19.50
2018-09-15T16:54:50.027Z,19.46
2018-09-15T16:56:50.325Z,19.46
2018-09-15T16:58:50.444Z,19.43
2018-09-15T17:00:50.407Z,19.41
2018-09-15T17:02:50.470Z,19.36
2018-09-15T17:04:49.966Z,19.34
2018-09-15T17:06:50.110Z,19.28
2018-09-15T17:08:50.221Z,19.24
2018-09-15T17:10:50.234Z,19.17
2018-09-15T17:12:50.293Z,19.10
2018-09-15T17:14:50.393Z,19.07
2018-09-15T17:16:50.691Z,18.95
2018-09-15T17:18:49.807Z,18.78
2018-09-15T17:20:49.831Z,18.71
2018-09-15T17:22:49.877Z,18.56
2018-09-15T17:24:49.892Z,18.50
2018-09-15T17:26:50.141Z,18.43
2018-09-15T17:28:50.154Z,18.20
2018-09-15T17:30:50.221Z,18.15
2018-09-15T17:32:50.220Z,18.00
2018-09-15T17:34:50.540Z,17.86
2018-09-15T17:36:50.840Z,17.84
2018-09-15T17:38:49.831Z,17.81
2018-09-15T17:40:49.879Z,17.79
2018-09-15T17:42:49.945Z,17.66
2018-09-15T17:44:49.906Z,17.58
2018-09-15T17:46:50.105Z,17.48
2018-09-15T17:48:50.096Z,17.44
2018-09-15T17:50:50.111Z,17.25
2018-09-15T17:52:50.057Z,17.14
2018-09-15T17:54:50.960Z,16.99
2018-09-15T17:56:50.480Z,16.98
2018-09-15T17:58:50.494Z,16.82
2018-09-15T18:00:50.526Z,16.77
2018-09-15T18:02:50.446Z,16.75
2018-09-15T18:04:49.853Z,16.71
2018-09-15T18:06:49.985Z,16.58
2018-09-15T18:08:49.988Z,16.38
2018-09-15T18:10:50.093Z,16.38
2018-09-15T18:12:50.118Z,16.38
2018-09-15T18:14:50.194Z,16.25
2018-09-15T18:16:50.346Z,16.17
2018-09-15T18:18:50.394Z,16.10
2018-09-15T18:20:50.380Z,15.98
2018-09-15T18:22:49.709Z,15.98
2018-09-15T18:24:49.791Z,15.85
2018-09-15T18:26:49.991Z,15.76
2018-09-15T18:28:50.047Z,15.71
2018-09-15T18:30:50.053Z,15.61
2018-09-15T18:32:50.046Z,15.46
2018-09-15T18:34:50.376Z,15.38
2018-09-15T18:36:50.872Z,15.33
2018-09-15T18:38:50.343Z,15.28
2018-09-15T18:40:50.478Z,15.14
2018-09-15T18:42:50.735Z,15.10
2018-09-15T18:44:49.926Z,15.01
2018-09-15T18:46:50.213Z,14.97
2018-09-15T18:48:50.271Z,14.86
2018-09-15T18:50:50.796Z,14.83
2018-09-15T18:52:49.969Z,14.81
2018-09-15T18:54:49.989Z,14.76
2018-09-15T18:56:50.067Z,14.66
2018-09-15T18:58:50.297Z,14.60
2018-09-15T19:00:50.338Z,14.51
2018-09-15T19:02:50.393Z,14.37
2018-09-15T19:04:49.687Z,14.32
2018-09-15T19:06:49.739Z,14.20
2018-09-15T19:08:49.812Z,14.20
2018-09-15T19:10:49.805Z,14.02
2018-09-15T19:12:49.969Z,13.99
2018-09-15T19:14:50.350Z,13.94
2018-09-15T19:16:50.619Z,13.92
2018-09-15T19:18:50.711Z,13.84
2018-09-15T19:20:50.687Z,13.73
2018-09-15T19:22:49.829Z,13.69
2018-09-15T19:24:49.829Z,13.62
2018-09-15T19:26:50.421Z,13.56
2018-09-15T19:28:50.562Z,13.52
2018-09-15T19:30:50.538Z,13.41
2018-09-15T19:32:50.971Z,13.41
2018-09-15T19:34:50.550Z,13.30
2018-09-15T19:36:49.818Z,13.24
2018-09-15T19:38:49.815Z,13.16
2018-09-15T19:40:49.859Z,13.09
2018-09-15T19:42:49.949Z,13.06
2018-09-15T19:44:49.963Z,12.97
2018-09-15T19:46:50.000Z,12.93
2018-09-15T19:48:50.004Z,12.89
2018-09-15T19:50:50.140Z,12.89
2018-09-15T19:52:50.132Z,12.74
2018-09-15T19:54:50.194Z,12.69
2018-09-15T19:56:50.385Z,12.66
2018-09-15T19:58:50.358Z,12.63
2018-09-15T20:00:50.360Z,12.53
2018-09-15T20:02:50.383Z,12.53
2018-09-15T20:04:50.068Z,12.38
2018-09-15T20:06:50.466Z,12.38
2018-09-15T20:08:50.459Z,12.31
2018-09-15T20:10:50.404Z,12.29
2018-09-15T20:12:50.636Z,12.23
2018-09-15T20:14:49.760Z,12.15
2018-09-15T20:16:50.032Z,12.12
2018-09-15T20:18:50.076Z,12.09
2018-09-15T20:20:50.170Z,12.05
2018-09-15T20:22:50.271Z,11.98
2018-09-15T20:24:50.775Z,11.94
2018-09-15T20:26:50.099Z,11.92
2018-09-15T20:28:50.164Z,11.85
2018-09-15T20:30:50.167Z,11.85
2018-09-15T20:32:50.535Z,11.83
2018-09-15T20:34:50.135Z,11.71
2018-09-15T20:36:50.203Z,11.67
2018-09-15T20:38:50.205Z,11.61
2018-09-15T20:40:50.246Z,11.57
2018-09-15T20:42:50.402Z,11.54
2018-09-15T20:44:50.387Z,11.50
2018-09-15T20:46:50.668Z,11.46
2018-09-15T20:48:50.619Z,11.39
2018-09-15T20:50:49.772Z,11.39
2018-09-15T20:52:49.778Z,11.36
2018-09-15T20:54:49.903Z,11.33
2018-09-15T20:56:50.157Z,11.33
2018-09-15T20:58:50.172Z,11.27
2018-09-15T21:00:50.106Z,11.24
2018-09-15T21:02:50.140Z,11.22
2018-09-15T21:04:50.488Z,11.17
2018-09-15T21:06:50.683Z,11.14
2018-09-15T21:08:49.725Z,11.05
2018-09-15T21:10:49.830Z,11.02
2018-09-15T21:12:50.052Z,10.97
2018-09-15T21:14:50.066Z,10.93
2018-09-15T21:16:50.228Z,10.90
2018-09-15T21:18:50.261Z,10.91
2018-09-15T21:20:50.322Z,10.91
2018-09-15T21:22:50.410Z,10.88
2018-09-15T21:24:50.495Z,10.85
2018-09-15T21:26:50.664Z,10.83
2018-09-15T21:28:49.768Z,10.75
2018-09-15T21:30:49.752Z,10.73
2018-09-15T21:32:49.715Z,10.70
2018-09-15T21:34:50.252Z,10.64
2018-09-15T21:36:50.583Z,10.63
2018-09-15T21:38:50.380Z,10.58
2018-09-15T21:40:50.700Z,10.51
2018-09-15T21:42:49.933Z,10.49
2018-09-15T21:44:49.930Z,10.47
2018-09-15T21:46:50.099Z,10.42
2018-09-15T21:48:50.134Z,10.40
2018-09-15T21:50:50.282Z,10.36
2018-09-15T21:52:50.342Z,10.33
2018-09-15T21:54:50.395Z,10.29
2018-09-15T21:56:50.563Z,10.28
2018-09-15T21:58:50.639Z,10.26
2018-09-15T22:00:50.590Z,10.23
2018-09-15T22:02:50.606Z,10.19
2018-09-15T22:04:50.139Z,10.17
2018-09-15T22:06:50.396Z,10.11
2018-09-15T22:08:50.365Z,10.11
2018-09-15T22:10:50.386Z,10.01
2018-09-15T22:12:50.305Z,9.96
2018-09-15T22:14:50.337Z,9.95
2018-09-15T22:16:50.633Z,9.93
2018-09-15T22:18:49.685Z,9.92
2018-09-15T22:20:49.819Z,9.89
2018-09-15T22:22:49.964Z,9.88
2018-09-15T22:24:50.096Z,9.85
2018-09-15T22:26:50.314Z,9.85
2018-09-15T22:28:50.378Z,9.80
2018-09-15T22:30:50.372Z,9.76
2018-09-15T22:32:50.429Z,9.76
2018-09-15T22:34:49.835Z,9.72
2018-09-15T22:36:50.138Z,9.69
2018-09-15T22:38:50.120Z,9.65
2018-09-15T22:40:50.251Z,9.66
2018-09-15T22:42:50.225Z,9.67
2018-09-15T22:44:50.235Z,9.67
2018-09-15T22:46:50.511Z,9.63
2018-09-15T22:48:50.517Z,9.54
2018-09-15T22:50:50.621Z,9.52
2018-09-15T22:52:49.975Z,9.45
2018-09-15T22:54:49.951Z,9.42
2018-09-15T22:56:50.106Z,9.34
2018-09-15T22:58:50.090Z,9.32
2018-09-15T23:00:50.124Z,9.29
2018-09-15T23:02:50.168Z,9.27
2018-09-15T23:04:50.468Z,9.27
2018-09-15T23:06:50.683Z,9.30
2018-09-15T23:08:50.649Z,9.30
2018-09-15T23:10:49.767Z,9.31
2018-09-15T23:12:49.844Z,9.27
2018-09-15T23:14:49.976Z,9.23
2018-09-15T23:16:50.189Z,9.19
2018-09-15T23:18:50.232Z,9.17
2018-09-15T23:20:50.271Z,9.13
2018-09-15T23:22:50.320Z,9.10
2018-09-15T23:24:50.304Z,9.09
2018-09-15T23:26:50.503Z,9.09
2018-09-15T23:28:50.575Z,9.08
2018-09-15T23:30:49.736Z,9.02
2018-09-15T23:32:49.810Z,9.00
2018-09-15T23:34:50.329Z,8.94
2018-09-15T23:36:50.492Z,8.91
2018-09-15T23:38:50.590Z,8.87
2018-09-15T23:40:50.694Z,8.86
2018-09-15T23:42:50.674Z,8.85
2018-09-15T23:44:49.752Z,8.84
2018-09-15T23:46:49.881Z,8.81
2018-09-15T23:48:49.965Z,8.79
2018-09-15T23:50:50.035Z,8.77
2018-09-15T23:52:50.053Z,8.76
2018-09-15T23:54:50.442Z,8.75
2018-09-15T23:56:50.584Z,8.73
2018-09-15T23:58:50.620Z,8.72
